Dutch
Home     News     Corporate     Events & Tours     Flight ops     Crew centre      
My transavia virtual    Join us    Last logs    Who is flying    Software    Training    VRTS     
 

view flightdata
view flightplan
view OFP
view flightlog



flightdata:
pilot: David Kloss
flight: TRA392
from: EHAM (Amsterdam Schiphol)
to: LWSK (Skopje)
date: 28-12-2010
departure: 16:28z
arrival: 18:52z
duration: 2:23
aircraft: B738 (PHHZX)
distance: 988 NM
touchdown: -378 ft/m @ 131 KIAS



flightplan:
-(FPL-TRA392-IS
-B738/M-SDEHPRWXY/S
-EHAM1630
-N0433F350 EDUPO UZ738 MISGO UZ741 GMH UL603 VEBAR UP738 VAGEN UL617 RAXAD UN128 SIN
-LWSK0230 LWOH
-REG/PHHZX SEL/JQCH OPR/TRA RMK/TCAS DOF/101228 RVR/200 ORGN/EHAMTRAK)



operational flightplan (OFP):
NO LOADSHEET AVAILABLE

TRANSAVIA.COM VIRTUAL AIRLINE TOUR:
WINTERTOUR 2011
LEG 20

WEATHER BRIEFING  -  TRA392  EHAM-LWSK  28DEC10  16:03Z

WEATHER DATA PROVIDED BY IVAO
** NOT FOR OPERATIONAL USE **

SCHIPHOL
EHAM 281525Z 11007KT 9000 -RADZ FEW015 01/M01 Q1019 BECMG NSW
EHAM 281257Z 2812/2918 13008KT 9999 FEW025 BKN045
      TEMPO 2812/2918 5000 -RASN -SN BKN018
      BECMG 2816/2819 7000 BKN012 PROB30
      TEMPO 2818/2902 2500 -SN -SNRA BKN007
      BECMG 2900/2903 4000 BR BKN007 PROB30
      TEMPO 2902/2909 2000 -DZRA BKN003
      BECMG 2908/2911 2500 BKN003 PROB30 2909/2918 1200 BKN002

SKOPJE
LWSK 281530Z 02008KT 9999 FEW030 M02/M07 Q1022 NOSIG
LWSK 281130Z 2812/2912 02006KT 9999 SCT040 SCT070
      TEMPO 2812/2819 02012KT

OHRID
LWOH 281530Z 30007KT 9999 FEW030 M01/M05 Q1016
LWOH 281130Z 2812/2912 VRB02KT 9999 FEW040 SCT090

END WX BRIEF




flightlog:
Pilot : David Kloss
Flight: TRA392
From  : EHAM Schiphol
To    : LWSK Skopje

[FLIGHTLOG] 1.2.14
28-12-2010 16:23:33z, logging started
28-12-2010 16:28:48z, parking brake released
28-12-2010 16:30:27z, flaps set to 25%
28-12-2010 16:30:28z, flaps set to 38%
28-12-2010 16:35:31z, take-off at 154 KIAS
28-12-2010 16:35:31z, pos report: 154 KIAS, -00 001 ft, heading 180, winds 110 @ 09 kts
28-12-2010 16:35:31z, flying online @ VATSIM (TRA392)
28-12-2010 16:35:31z, position: EHAM - Schiphol
28-12-2010 16:35:36z, retracted gear at 165 KIAS and 54 ft AGL
28-12-2010 16:36:22z, flaps set to 25%
28-12-2010 16:36:26z, flaps set to 13%
28-12-2010 16:36:33z, flaps set to 0%
28-12-2010 16:38:31z, pos report: 249 KIAS, 06 824 ft, heading 091, winds 126 @ 12 kts
28-12-2010 16:53:31z, pos report: 255 KIAS, 34 619 ft, heading 112, winds 257 @ 39 kts
28-12-2010 17:08:32z, pos report: 253 KIAS, 35 229 ft, heading 139, winds 265 @ 31 kts
28-12-2010 17:23:34z, pos report: 255 KIAS, 35 230 ft, heading 140, winds 277 @ 49 kts
28-12-2010 17:38:34z, pos report: 253 KIAS, 35 201 ft, heading 128, winds 308 @ 74 kts
28-12-2010 17:53:35z, pos report: 253 KIAS, 35 201 ft, heading 130, winds 311 @ 75 kts
28-12-2010 18:08:35z, pos report: 253 KIAS, 35 230 ft, heading 123, winds 311 @ 73 kts
28-12-2010 18:23:36z, pos report: 253 KIAS, 35 290 ft, heading 117, winds 319 @ 77 kts
28-12-2010 18:35:50z, deployed spoilers
28-12-2010 18:36:34z, retracted spoilers
28-12-2010 18:38:37z, pos report: 244 KIAS, 09 865 ft, heading 191, winds 315 @ 11 kts
28-12-2010 18:41:48z, lost localizer
28-12-2010 18:41:49z, on glideslope
28-12-2010 18:42:11z, below glideslope
28-12-2010 18:44:02z, flaps set to 13%
28-12-2010 18:44:03z, intercepted localizer
28-12-2010 18:44:05z, flaps set to 25%
28-12-2010 18:44:08z, flaps set to 38%
28-12-2010 18:45:05z, flaps set to 50%
28-12-2010 18:45:07z, on glideslope
28-12-2010 18:45:11z, flaps set to 62%
28-12-2010 18:45:59z, lowered gear at 166 KIAS and 1569 ft AGL
28-12-2010 18:46:01z, flaps set to 75%
28-12-2010 18:46:06z, flaps set to 87%
28-12-2010 18:48:09z, below glideslope
28-12-2010 18:48:29z, touchdown: -378ft/m at 131 KIAS
28-12-2010 18:48:29z, pos report: 131 KIAS, 00 788 ft, heading 346, winds 143 @ 08 kts
28-12-2010 18:48:29z, flying online @ VATSIM (TRA392)
28-12-2010 18:48:29z, position: LWSK - Skopje
28-12-2010 18:48:58z, retracted spoilers
28-12-2010 18:49:00z, flaps set to 62%
28-12-2010 18:49:01z, flaps set to 0%

©2009-2020, transavia virtual. All rights reserved. This website is only meant for simulation purposes.
This website is not owned by transavia, nor is transavia responsible for the content of this website.